»·PEaware :: N85AA KOAK-KCXP

N85AA :: KOAK-KCXP

FLIGHT INFORMATION

Flight Status: Arrived
Operator: Privately registered:
United States
More flights under this callsign
Pilot: Dan A. (12711)
Aircraft: SOCATA TBM-900
(TBM9)
More flights by this aircraft type
Origin: KOAK Metro Oakland Intl
United States
Destination: KCXP Carson
United States
More flights between these airports :: More routes between these airports
Route: +COLLI V6 SWR V494 HUYJO
File this flight plan on PilotEdge
Remarks:
Altitude:
(Current/Filed)
19,000ft
Speed:
(Current/Filed)
250kts
Departed: 23-Jun-19 04:03 PM
Arrived: 23-Jun-19 04:55 PM
Distance/Time
Traveled:
146nm/0:52
Distance/Time
To Go:
Arrived

Flight Plot

Page will automatically refresh every two minutes.

Flight plan parsing failed; only flown route is shown


Map Options




Map Legend


Flown Route
Filed Route
Departure Airport
Arrival Airport
Navaid (VOR, NDB)
Fix

Horizontal Profiles

Position Reports

Time Latitude Longitude Heading Altitude Ground
Speed
23-Jun-19 15:29 37.733601 -122.215500 234 6ft 0kts
23-Jun-19 15:30 37.733601 -122.215500 234 6ft 0kts
23-Jun-19 15:31 37.733601 -122.215500 234 6ft 0kts
23-Jun-19 15:32 37.733601 -122.215500 234 6ft 0kts
23-Jun-19 15:33 37.733601 -122.215500 234 6ft 0kts
23-Jun-19 15:34 37.733601 -122.215500 234 6ft 0kts
23-Jun-19 15:35 37.733601 -122.215500 234 6ft 0kts
23-Jun-19 15:36 37.733601 -122.215500 234 6ft 0kts
23-Jun-19 15:37 37.733601 -122.215500 234 6ft 0kts
23-Jun-19 15:38 37.733601 -122.215500 234 6ft 0kts
23-Jun-19 15:39 37.733601 -122.215500 234 6ft 0kts
23-Jun-19 15:40 37.733601 -122.215500 234 6ft 0kts
23-Jun-19 15:41 37.733601 -122.215500 234 6ft 0kts
23-Jun-19 15:42 37.733601 -122.215500 234 6ft 0kts
23-Jun-19 15:43 37.733601 -122.215500 234 6ft 0kts
23-Jun-19 15:44 37.733601 -122.215500 234 6ft 0kts
23-Jun-19 15:45 37.733601 -122.215500 234 6ft 0kts
23-Jun-19 15:46 37.733601 -122.215500 234 6ft 0kts
23-Jun-19 15:47 37.733601 -122.215500 234 6ft 0kts
23-Jun-19 15:48 37.733601 -122.215500 234 6ft 0kts
23-Jun-19 15:49 37.733601 -122.215500 234 6ft 0kts
23-Jun-19 15:50 37.733601 -122.215500 234 6ft 0kts
23-Jun-19 15:51 37.733601 -122.215500 234 6ft 0kts
23-Jun-19 15:52 37.733601 -122.215500 234 6ft 0kts
23-Jun-19 15:53 37.733601 -122.215500 234 6ft 0kts
23-Jun-19 15:54 37.733601 -122.215500 234 6ft 0kts
23-Jun-19 15:55 37.733566 -122.215563 237 6ft 0kts
23-Jun-19 15:56 37.733311 -122.215858 220 6ft 9kts
23-Jun-19 15:57 37.730311 -122.215340 115 6ft 21kts
23-Jun-19 15:58 37.727546 -122.209821 117 6ft 22kts
23-Jun-19 15:59 37.725401 -122.204499 191 6ft 0kts
23-Jun-19 16:00 37.725401 -122.204499 191 6ft 0kts
23-Jun-19 16:01 37.725222 -122.204569 200 6ft 9kts
23-Jun-19 16:02 37.732126 -122.228207 303 619ft 128kts
23-Jun-19 16:03 37.757801 -122.256167 328 2257ft 173kts
23-Jun-19 16:04 37.798544 -122.285364 322 3199ft 166kts
23-Jun-19 16:05 37.785817 -122.336183 281 3710ft 170kts
23-Jun-19 16:06 37.804802 -122.384183 273 4203ft 173kts
23-Jun-19 16:07 37.841431 -122.383993 67 4654ft 193kts
23-Jun-19 16:08 37.842751 -122.314594 82 5766ft 200kts
23-Jun-19 16:09 37.848387 -122.245459 80 7563ft 203kts
23-Jun-19 16:10 37.854715 -122.175165 81 9798ft 203kts
23-Jun-19 16:11 37.861264 -122.102951 82 11659ft 211kts
23-Jun-19 16:12 37.897290 -122.048293 37 13247ft 213kts
23-Jun-19 16:13 37.943968 -122.000373 36 14652ft 219kts
23-Jun-19 16:14 37.984875 -121.958301 36 16053ft 223kts
23-Jun-19 16:15 38.032078 -121.909687 35 17479ft 228kts
23-Jun-19 16:16 38.081669 -121.858526 35 18755ft 233kts
23-Jun-19 16:17 38.135291 -121.803152 35 18954ft 264kts
23-Jun-19 16:18 38.189847 -121.737081 45 18945ft 277kts
23-Jun-19 16:19 38.240840 -121.663096 45 18965ft 279kts
23-Jun-19 16:20 38.298671 -121.600815 18 18969ft 272kts
23-Jun-19 16:21 38.371160 -121.573322 12 18957ft 272kts
23-Jun-19 16:22 38.443779 -121.546543 28 18929ft 276kts
23-Jun-19 16:23 38.489350 -121.465960 52 18956ft 282kts
23-Jun-19 16:24 38.532747 -121.382637 52 18953ft 282kts
23-Jun-19 16:25 38.577991 -121.300995 46 18948ft 280kts
23-Jun-19 16:26 38.628730 -121.225181 46 18945ft 280kts
23-Jun-19 16:27 38.679473 -121.149419 46 18966ft 280kts
23-Jun-19 16:28 38.730422 -121.073697 46 19019ft 281kts
23-Jun-19 16:29 38.781812 -120.997868 46 19054ft 283kts
23-Jun-19 16:31 38.833836 -120.921730 46 19058ft 285kts
23-Jun-19 16:32 38.880391 -120.838696 56 19062ft 287kts
23-Jun-19 16:33 38.922064 -120.751268 56 19116ft 288kts
23-Jun-19 16:34 38.959689 -120.671669 56 19173ft 289kts
23-Jun-19 16:35 38.999647 -120.586308 56 19207ft 270kts
23-Jun-19 16:36 39.031283 -120.518076 55 19242ft 266kts
23-Jun-19 16:37 39.074472 -120.441466 48 19258ft 264kts
23-Jun-19 16:38 39.119783 -120.364872 48 19263ft 276kts
23-Jun-19 16:39 39.168794 -120.287090 46 19252ft 281kts
23-Jun-19 16:40 39.192669 -120.194881 76 18566ft 263kts
23-Jun-19 16:41 39.207245 -120.106066 76 17621ft 245kts
23-Jun-19 16:42 39.221039 -120.021684 77 16711ft 238kts
23-Jun-19 16:43 39.234115 -119.939770 81 15572ft 223kts
23-Jun-19 16:44 39.236466 -119.864782 92 13512ft 196kts
23-Jun-19 16:45 39.196624 -119.830955 155 11262ft 165kts
23-Jun-19 16:46 39.168542 -119.785186 116 10181ft 170kts
23-Jun-19 16:47 39.151960 -119.729685 108 9315ft 159kts
23-Jun-19 16:48 39.139578 -119.676252 103 8693ft 151kts
23-Jun-19 16:49 39.135764 -119.618139 90 8639ft 171kts
23-Jun-19 16:50 39.151195 -119.567072 29 8532ft 174kts
23-Jun-19 16:51 39.169541 -119.591322 263 7505ft 146kts
23-Jun-19 16:51 39.168392 -119.627710 276 6824ft 112kts
23-Jun-19 16:53 39.182123 -119.678997 277 5616ft 136kts
23-Jun-19 16:54 39.189648 -119.718522 281 4781ft 99kts
23-Jun-19 16:54 39.192319 -119.732033 274 4700ft 2kts
23-Jun-19 16:55 39.191844 -119.734803 190 4699ft 12kts
23-Jun-19 16:57 39.190880 -119.735125 116 4697ft 0kts
23-Jun-19 16:57 39.190880 -119.735125 116 4697ft 0kts
23-Jun-19 16:58 39.190880 -119.735125 116 4697ft 0kts
23-Jun-19 16:59 39.190880 -119.735125 116 4697ft 0kts

Navigation Log

Ident Type
Flight plan parsing failed, navigation log unavailable